sensor_id;sensor_type;location;lat;lon;timestamp;P1;durP1;ratioP1;P2;durP2;ratioP2
66087;SDS011;52872;52.994;6.940;2023-04-15T00:01:38;9.77;;;5.95;;
66087;SDS011;52872;52.994;6.940;2023-04-15T00:04:05;9.27;;;5.47;;
66087;SDS011;52872;52.994;6.940;2023-04-15T00:06:32;7.43;;;5.68;;
66087;SDS011;52872;52.994;6.940;2023-04-15T00:08:59;11.80;;;6.43;;
66087;SDS011;52872;52.994;6.940;2023-04-15T00:11:26;6.82;;;5.95;;
66087;SDS011;52872;52.994;6.940;2023-04-15T00:13:53;11.07;;;6.10;;
66087;SDS011;52872;52.994;6.940;2023-04-15T00:16:20;9.93;;;6.18;;
66087;SDS011;52872;52.994;6.940;2023-04-15T00:18:47;19.10;;;6.90;;
66087;SDS011;52872;52.994;6.940;2023-04-15T00:21:14;9.50;;;7.10;;
66087;SDS011;52872;52.994;6.940;2023-04-15T00:23:41;12.18;;;6.35;;
66087;SDS011;52872;52.994;6.940;2023-04-15T00:26:09;9.82;;;6.30;;
66087;SDS011;52872;52.994;6.940;2023-04-15T00:28:36;8.90;;;6.18;;
66087;SDS011;52872;52.994;6.940;2023-04-15T00:31:03;12.25;;;6.25;;
66087;SDS011;52872;52.994;6.940;2023-04-15T00:33:31;9.20;;;6.07;;
66087;SDS011;52872;52.994;6.940;2023-04-15T00:35:58;11.65;;;6.53;;
66087;SDS011;52872;52.994;6.940;2023-04-15T00:38:25;9.82;;;6.57;;
66087;SDS011;52872;52.994;6.940;2023-04-15T00:40:52;12.10;;;6.35;;
66087;SDS011;52872;52.994;6.940;2023-04-15T00:43:20;9.38;;;6.93;;
66087;SDS011;52872;52.994;6.940;2023-04-15T00:45:47;9.40;;;6.20;;
66087;SDS011;52872;52.994;6.940;2023-04-15T00:48:17;12.10;;;7.05;;
66087;SDS011;52872;52.994;6.940;2023-04-15T00:50:45;10.70;;;6.68;;
66087;SDS011;52872;52.994;6.940;2023-04-15T00:53:12;11.23;;;7.00;;
66087;SDS011;52872;52.994;6.940;2023-04-15T00:55:39;11.05;;;6.88;;
66087;SDS011;52872;52.994;6.940;2023-04-15T00:58:06;12.45;;;7.05;;
66087;SDS011;52872;52.994;6.940;2023-04-15T01:00:33;8.73;;;6.88;;
66087;SDS011;52872;52.994;6.940;2023-04-15T01:03:01;9.35;;;6.78;;
66087;SDS011;52872;52.994;6.940;2023-04-15T01:05:29;14.73;;;6.97;;
66087;SDS011;52872;52.994;6.940;2023-04-15T01:07:56;9.77;;;6.82;;
66087;SDS011;52872;52.994;6.940;2023-04-15T01:10:23;11.95;;;7.65;;
66087;SDS011;52872;52.994;6.940;2023-04-15T01:12:50;11.55;;;7.68;;
66087;SDS011;52872;52.994;6.940;2023-04-15T01:15:17;11.60;;;6.88;;
66087;SDS011;52872;52.994;6.940;2023-04-15T01:17:45;12.85;;;7.90;;
66087;SDS011;52872;52.994;6.940;2023-04-15T01:20:13;11.38;;;7.85;;
66087;SDS011;52872;52.994;6.940;2023-04-15T01:22:41;12.38;;;7.10;;
66087;SDS011;52872;52.994;6.940;2023-04-15T01:25:11;10.18;;;7.13;;
66087;SDS011;52872;52.994;6.940;2023-04-15T01:27:43;12.82;;;7.38;;
66087;SDS011;52872;52.994;6.940;2023-04-15T01:30:10;11.68;;;7.38;;
66087;SDS011;52872;52.994;6.940;2023-04-15T01:32:37;12.68;;;7.88;;
66087;SDS011;52872;52.994;6.940;2023-04-15T01:35:04;12.55;;;7.63;;
66087;SDS011;52872;52.994;6.940;2023-04-15T01:37:32;10.63;;;7.93;;
66087;SDS011;52872;52.994;6.940;2023-04-15T01:39:59;14.32;;;8.18;;
66087;SDS011;52872;52.994;6.940;2023-04-15T01:42:26;11.02;;;7.63;;
66087;SDS011;52872;52.994;6.940;2023-04-15T01:44:53;8.00;;;6.93;;
66087;SDS011;52872;52.994;6.940;2023-04-15T01:47:21;9.30;;;7.35;;
66087;SDS011;52872;52.994;6.940;2023-04-15T01:49:48;10.48;;;7.28;;
66087;SDS011;52872;52.994;6.940;2023-04-15T01:52:14;10.43;;;8.05;;
66087;SDS011;52872;52.994;6.940;2023-04-15T01:54:41;11.90;;;7.93;;
66087;SDS011;52872;52.994;6.940;2023-04-15T01:57:10;10.93;;;7.65;;
66087;SDS011;52872;52.994;6.940;2023-04-15T01:59:37;11.98;;;7.43;;
66087;SDS011;52872;52.994;6.940;2023-04-15T02:02:04;11.93;;;8.05;;
66087;SDS011;52872;52.994;6.940;2023-04-15T02:04:31;10.80;;;7.65;;
66087;SDS011;52872;52.994;6.940;2023-04-15T02:06:59;12.50;;;7.55;;
66087;SDS011;52872;52.994;6.940;2023-04-15T02:09:27;12.27;;;7.88;;
66087;SDS011;52872;52.994;6.940;2023-04-15T02:11:54;14.15;;;7.32;;
66087;SDS011;52872;52.994;6.940;2023-04-15T02:14:22;11.57;;;7.85;;
66087;SDS011;52872;52.994;6.940;2023-04-15T02:16:49;11.75;;;7.88;;
66087;SDS011;52872;52.994;6.940;2023-04-15T02:19:16;16.40;;;8.07;;
66087;SDS011;52872;52.994;6.940;2023-04-15T02:21:43;12.05;;;7.53;;
66087;SDS011;52872;52.994;6.940;2023-04-15T02:24:10;11.02;;;7.72;;
66087;SDS011;52872;52.994;6.940;2023-04-15T02:26:39;11.95;;;7.93;;
66087;SDS011;52872;52.994;6.940;2023-04-15T02:29:06;10.32;;;7.95;;
66087;SDS011;52872;52.994;6.940;2023-04-15T02:31:33;10.40;;;8.27;;
66087;SDS011;52872;52.994;6.940;2023-04-15T02:34:05;11.82;;;8.10;;
66087;SDS011;52872;52.994;6.940;2023-04-15T02:36:32;11.65;;;8.35;;
66087;SDS011;52872;52.994;6.940;2023-04-15T02:38:59;14.13;;;8.23;;
66087;SDS011;52872;52.994;6.940;2023-04-15T02:41:28;10.60;;;8.18;;
66087;SDS011;52872;52.994;6.940;2023-04-15T02:43:55;12.05;;;8.98;;
66087;SDS011;52872;52.994;6.940;2023-04-15T02:46:22;15.60;;;9.23;;
66087;SDS011;52872;52.994;6.940;2023-04-15T02:48:50;12.95;;;8.82;;
66087;SDS011;52872;52.994;6.940;2023-04-15T02:51:20;10.07;;;8.45;;
66087;SDS011;52872;52.994;6.940;2023-04-15T02:53:51;12.25;;;9.00;;
66087;SDS011;52872;52.994;6.940;2023-04-15T02:56:18;13.90;;;9.45;;
66087;SDS011;52872;52.994;6.940;2023-04-15T02:58:45;14.60;;;8.20;;
66087;SDS011;52872;52.994;6.940;2023-04-15T03:01:12;12.63;;;9.75;;
66087;SDS011;52872;52.994;6.940;2023-04-15T03:03:40;11.60;;;9.35;;
66087;SDS011;52872;52.994;6.940;2023-04-15T03:06:07;12.27;;;9.13;;
66087;SDS011;52872;52.994;6.940;2023-04-15T03:08:35;10.95;;;9.15;;
66087;SDS011;52872;52.994;6.940;2023-04-15T03:11:02;13.45;;;9.48;;
66087;SDS011;52872;52.994;6.940;2023-04-15T03:13:31;17.65;;;10.05;;
66087;SDS011;52872;52.994;6.940;2023-04-15T03:16:05;15.60;;;9.50;;
66087;SDS011;52872;52.994;6.940;2023-04-15T03:18:32;16.20;;;10.02;;
66087;SDS011;52872;52.994;6.940;2023-04-15T03:21:01;15.90;;;9.70;;
66087;SDS011;52872;52.994;6.940;2023-04-15T03:23:32;14.93;;;9.55;;
66087;SDS011;52872;52.994;6.940;2023-04-15T03:26:02;13.50;;;9.80;;
66087;SDS011;52872;52.994;6.940;2023-04-15T03:28:31;13.68;;;10.07;;
66087;SDS011;52872;52.994;6.940;2023-04-15T03:30:59;14.23;;;9.80;;
66087;SDS011;52872;52.994;6.940;2023-04-15T03:33:26;16.08;;;10.32;;
66087;SDS011;52872;52.994;6.940;2023-04-15T03:35:53;15.05;;;9.85;;
66087;SDS011;52872;52.994;6.940;2023-04-15T03:38:20;15.23;;;11.10;;
66087;SDS011;52872;52.994;6.940;2023-04-15T03:40:47;15.68;;;10.35;;
66087;SDS011;52872;52.994;6.940;2023-04-15T03:43:14;13.88;;;9.73;;
66087;SDS011;52872;52.994;6.940;2023-04-15T03:45:41;15.95;;;10.48;;
66087;SDS011;52872;52.994;6.940;2023-04-15T03:48:08;14.77;;;10.18;;
66087;SDS011;52872;52.994;6.940;2023-04-15T03:50:43;15.57;;;10.38;;
66087;SDS011;52872;52.994;6.940;2023-04-15T03:53:10;19.52;;;12.07;;
66087;SDS011;52872;52.994;6.940;2023-04-15T03:55:37;17.27;;;10.98;;
66087;SDS011;52872;52.994;6.940;2023-04-15T03:58:04;18.70;;;12.35;;
66087;SDS011;52872;52.994;6.940;2023-04-15T04:00:31;18.88;;;12.98;;
66087;SDS011;52872;52.994;6.940;2023-04-15T04:02:58;16.58;;;12.07;;
66087;SDS011;52872;52.994;6.940;2023-04-15T04:05:25;21.95;;;12.40;;
66087;SDS011;52872;52.994;6.940;2023-04-15T04:07:52;20.02;;;13.27;;
66087;SDS011;52872;52.994;6.940;2023-04-15T04:10:19;20.75;;;13.60;;
66087;SDS011;52872;52.994;6.940;2023-04-15T04:12:46;27.77;;;14.63;;
66087;SDS011;52872;52.994;6.940;2023-04-15T04:15:13;23.70;;;15.38;;
66087;SDS011;52872;52.994;6.940;2023-04-15T04:17:40;24.83;;;14.88;;
66087;SDS011;52872;52.994;6.940;2023-04-15T04:20:07;23.92;;;15.15;;
66087;SDS011;52872;52.994;6.940;2023-04-15T04:22:38;26.48;;;14.98;;
66087;SDS011;52872;52.994;6.940;2023-04-15T04:25:06;23.65;;;15.07;;
66087;SDS011;52872;52.994;6.940;2023-04-15T04:27:34;22.25;;;14.05;;
66087;SDS011;52872;52.994;6.940;2023-04-15T04:30:01;27.83;;;16.35;;
66087;SDS011;52872;52.994;6.940;2023-04-15T04:32:28;28.50;;;16.10;;
66087;SDS011;52872;52.994;6.940;2023-04-15T04:34:55;28.52;;;16.83;;
66087;SDS011;52872;52.994;6.940;2023-04-15T04:37:22;28.17;;;17.27;;
66087;SDS011;52872;52.994;6.940;2023-04-15T04:39:49;26.88;;;15.82;;
66087;SDS011;52872;52.994;6.940;2023-04-15T04:42:16;26.23;;;16.75;;
66087;SDS011;52872;52.994;6.940;2023-04-15T04:44:43;28.95;;;16.38;;
66087;SDS011;52872;52.994;6.940;2023-04-15T04:47:10;27.77;;;16.35;;
66087;SDS011;52872;52.994;6.940;2023-04-15T04:49:37;24.27;;;15.60;;
66087;SDS011;52872;52.994;6.940;2023-04-15T04:52:04;25.70;;;16.17;;
66087;SDS011;52872;52.994;6.940;2023-04-15T04:54:31;27.77;;;17.48;;
66087;SDS011;52872;52.994;6.940;2023-04-15T04:56:58;29.77;;;16.80;;
66087;SDS011;52872;52.994;6.940;2023-04-15T04:59:26;24.45;;;15.38;;
66087;SDS011;52872;52.994;6.940;2023-04-15T05:01:53;29.25;;;15.82;;
66087;SDS011;52872;52.994;6.940;2023-04-15T05:04:20;31.65;;;17.33;;
66087;SDS011;52872;52.994;6.940;2023-04-15T05:06:47;30.55;;;17.70;;
66087;SDS011;52872;52.994;6.940;2023-04-15T05:09:14;30.90;;;17.88;;
66087;SDS011;52872;52.994;6.940;2023-04-15T05:11:41;28.17;;;16.58;;
66087;SDS011;52872;52.994;6.940;2023-04-15T05:14:08;28.08;;;16.60;;
66087;SDS011;52872;52.994;6.940;2023-04-15T05:16:35;27.05;;;16.15;;
66087;SDS011;52872;52.994;6.940;2023-04-15T05:19:02;22.80;;;15.30;;
66087;SDS011;52872;52.994;6.940;2023-04-15T05:21:29;26.17;;;15.68;;
66087;SDS011;52872;52.994;6.940;2023-04-15T05:23:57;24.98;;;16.23;;
66087;SDS011;52872;52.994;6.940;2023-04-15T05:26:23;23.88;;;15.45;;
66087;SDS011;52872;52.994;6.940;2023-04-15T05:28:50;24.48;;;15.02;;
66087;SDS011;52872;52.994;6.940;2023-04-15T05:31:17;26.73;;;15.75;;
66087;SDS011;52872;52.994;6.940;2023-04-15T05:33:44;24.58;;;16.33;;
66087;SDS011;52872;52.994;6.940;2023-04-15T05:36:11;21.17;;;14.35;;
66087;SDS011;52872;52.994;6.940;2023-04-15T05:38:38;21.13;;;14.93;;
66087;SDS011;52872;52.994;6.940;2023-04-15T05:41:05;21.20;;;13.30;;
66087;SDS011;52872;52.994;6.940;2023-04-15T05:43:32;19.95;;;13.30;;
66087;SDS011;52872;52.994;6.940;2023-04-15T05:45:59;20.02;;;13.52;;
66087;SDS011;52872;52.994;6.940;2023-04-15T05:48:26;18.83;;;12.63;;
66087;SDS011;52872;52.994;6.940;2023-04-15T05:50:53;21.00;;;13.65;;
66087;SDS011;52872;52.994;6.940;2023-04-15T05:53:20;17.33;;;13.68;;
66087;SDS011;52872;52.994;6.940;2023-04-15T05:55:47;17.67;;;12.63;;
66087;SDS011;52872;52.994;6.940;2023-04-15T05:58:13;18.52;;;13.23;;
66087;SDS011;52872;52.994;6.940;2023-04-15T06:00:40;17.85;;;13.00;;
66087;SDS011;52872;52.994;6.940;2023-04-15T06:03:07;18.80;;;12.73;;
66087;SDS011;52872;52.994;6.940;2023-04-15T06:05:34;17.27;;;12.98;;
66087;SDS011;52872;52.994;6.940;2023-04-15T06:08:01;17.23;;;12.52;;
66087;SDS011;52872;52.994;6.940;2023-04-15T06:10:28;16.42;;;11.93;;
66087;SDS011;52872;52.994;6.940;2023-04-15T06:12:56;17.67;;;12.02;;
66087;SDS011;52872;52.994;6.940;2023-04-15T06:15:23;16.35;;;11.82;;
66087;SDS011;52872;52.994;6.940;2023-04-15T06:17:49;15.48;;;11.38;;
66087;SDS011;52872;52.994;6.940;2023-04-15T06:20:17;16.58;;;11.18;;
66087;SDS011;52872;52.994;6.940;2023-04-15T06:22:44;15.43;;;10.82;;
66087;SDS011;52872;52.994;6.940;2023-04-15T06:25:11;14.98;;;11.07;;
66087;SDS011;52872;52.994;6.940;2023-04-15T06:27:38;12.18;;;8.55;;
66087;SDS011;52872;52.994;6.940;2023-04-15T06:30:06;13.13;;;10.50;;
66087;SDS011;52872;52.994;6.940;2023-04-15T06:32:33;13.93;;;9.57;;
66087;SDS011;52872;52.994;6.940;2023-04-15T06:35:01;10.73;;;8.32;;
66087;SDS011;52872;52.994;6.940;2023-04-15T06:37:28;12.27;;;9.13;;
66087;SDS011;52872;52.994;6.940;2023-04-15T06:39:55;13.13;;;8.50;;
66087;SDS011;52872;52.994;6.940;2023-04-15T06:42:22;14.38;;;9.10;;
66087;SDS011;52872;52.994;6.940;2023-04-15T06:44:49;11.35;;;7.43;;
66087;SDS011;52872;52.994;6.940;2023-04-15T06:47:16;13.57;;;7.60;;
66087;SDS011;52872;52.994;6.940;2023-04-15T06:49:43;10.32;;;6.38;;
66087;SDS011;52872;52.994;6.940;2023-04-15T06:52:10;9.77;;;7.82;;
66087;SDS011;52872;52.994;6.940;2023-04-15T06:54:38;9.02;;;7.25;;
66087;SDS011;52872;52.994;6.940;2023-04-15T06:57:05;10.93;;;8.02;;
66087;SDS011;52872;52.994;6.940;2023-04-15T06:59:32;10.48;;;7.63;;
66087;SDS011;52872;52.994;6.940;2023-04-15T07:01:59;8.00;;;6.25;;
66087;SDS011;52872;52.994;6.940;2023-04-15T07:04:26;10.07;;;6.63;;
66087;SDS011;52872;52.994;6.940;2023-04-15T07:06:53;12.77;;;7.45;;
66087;SDS011;52872;52.994;6.940;2023-04-15T07:09:23;8.35;;;5.43;;
66087;SDS011;52872;52.994;6.940;2023-04-15T07:11:51;10.77;;;7.32;;
66087;SDS011;52872;52.994;6.940;2023-04-15T07:14:17;10.70;;;6.80;;
66087;SDS011;52872;52.994;6.940;2023-04-15T07:16:44;6.78;;;5.20;;
66087;SDS011;52872;52.994;6.940;2023-04-15T07:19:12;9.88;;;6.15;;
66087;SDS011;52872;52.994;6.940;2023-04-15T07:21:39;8.20;;;6.35;;
66087;SDS011;52872;52.994;6.940;2023-04-15T07:24:07;7.80;;;6.22;;
66087;SDS011;52872;52.994;6.940;2023-04-15T07:26:35;9.38;;;6.40;;
66087;SDS011;52872;52.994;6.940;2023-04-15T07:29:02;8.57;;;5.95;;
66087;SDS011;52872;52.994;6.940;2023-04-15T07:31:29;5.90;;;5.28;;
66087;SDS011;52872;52.994;6.940;2023-04-15T07:33:56;7.75;;;5.15;;
66087;SDS011;52872;52.994;6.940;2023-04-15T07:36:24;7.90;;;5.15;;
66087;SDS011;52872;52.994;6.940;2023-04-15T07:38:51;8.63;;;6.55;;
66087;SDS011;52872;52.994;6.940;2023-04-15T07:41:18;8.82;;;6.50;;
66087;SDS011;52872;52.994;6.940;2023-04-15T07:43:45;9.07;;;6.78;;
66087;SDS011;52872;52.994;6.940;2023-04-15T07:46:14;7.30;;;6.30;;
66087;SDS011;52872;52.994;6.940;2023-04-15T07:48:41;8.18;;;7.18;;
66087;SDS011;52872;52.994;6.940;2023-04-15T07:51:08;7.68;;;6.05;;
66087;SDS011;52872;52.994;6.940;2023-04-15T07:53:36;6.20;;;5.10;;
66087;SDS011;52872;52.994;6.940;2023-04-15T07:56:03;4.70;;;3.90;;
66087;SDS011;52872;52.994;6.940;2023-04-15T07:58:30;6.00;;;4.57;;
66087;SDS011;52872;52.994;6.940;2023-04-15T08:00:57;5.03;;;4.07;;
66087;SDS011;52872;52.994;6.940;2023-04-15T08:03:24;4.05;;;3.45;;
66087;SDS011;52872;52.994;6.940;2023-04-15T08:05:52;4.90;;;3.67;;
66087;SDS011;52872;52.994;6.940;2023-04-15T08:08:19;4.85;;;4.35;;
66087;SDS011;52872;52.994;6.940;2023-04-15T08:10:47;5.68;;;3.80;;
66087;SDS011;52872;52.994;6.940;2023-04-15T08:13:17;8.38;;;4.93;;
66087;SDS011;52872;52.994;6.940;2023-04-15T08:15:44;5.57;;;4.47;;
66087;SDS011;52872;52.994;6.940;2023-04-15T08:18:11;4.50;;;4.00;;
66087;SDS011;52872;52.994;6.940;2023-04-15T08:20:38;4.43;;;3.50;;
66087;SDS011;52872;52.994;6.940;2023-04-15T08:23:05;4.18;;;3.42;;
66087;SDS011;52872;52.994;6.940;2023-04-15T08:25:32;4.63;;;4.20;;
66087;SDS011;52872;52.994;6.940;2023-04-15T08:28:02;4.13;;;3.50;;
66087;SDS011;52872;52.994;6.940;2023-04-15T08:30:32;5.07;;;3.17;;
66087;SDS011;52872;52.994;6.940;2023-04-15T08:32:59;4.78;;;3.83;;
66087;SDS011;52872;52.994;6.940;2023-04-15T08:35:27;3.60;;;3.10;;
66087;SDS011;52872;52.994;6.940;2023-04-15T08:37:54;4.15;;;3.63;;
66087;SDS011;52872;52.994;6.940;2023-04-15T08:40:21;3.67;;;3.33;;
66087;SDS011;52872;52.994;6.940;2023-04-15T08:42:51;5.32;;;3.75;;
66087;SDS011;52872;52.994;6.940;2023-04-15T08:45:20;5.97;;;3.38;;
66087;SDS011;52872;52.994;6.940;2023-04-15T08:47:48;4.43;;;3.33;;
66087;SDS011;52872;52.994;6.940;2023-04-15T08:50:21;3.08;;;2.83;;
66087;SDS011;52872;52.994;6.940;2023-04-15T08:52:52;4.35;;;3.03;;
66087;SDS011;52872;52.994;6.940;2023-04-15T08:55:21;11.93;;;3.55;;
66087;SDS011;52872;52.994;6.940;2023-04-15T08:57:49;4.85;;;3.25;;
66087;SDS011;52872;52.994;6.940;2023-04-15T09:00:16;2.88;;;2.50;;
66087;SDS011;52872;52.994;6.940;2023-04-15T09:02:44;8.15;;;3.28;;
66087;SDS011;52872;52.994;6.940;2023-04-15T09:05:12;4.90;;;3.35;;
66087;SDS011;52872;52.994;6.940;2023-04-15T09:07:39;4.88;;;3.88;;
66087;SDS011;52872;52.994;6.940;2023-04-15T09:10:06;3.03;;;2.67;;
66087;SDS011;52872;52.994;6.940;2023-04-15T09:12:34;4.38;;;3.33;;
66087;SDS011;52872;52.994;6.940;2023-04-15T09:15:02;3.20;;;2.95;;
66087;SDS011;52872;52.994;6.940;2023-04-15T09:17:29;5.47;;;3.38;;
66087;SDS011;52872;52.994;6.940;2023-04-15T09:20:12;4.78;;;2.50;;
66087;SDS011;52872;52.994;6.940;2023-04-15T09:22:40;4.10;;;3.00;;
66087;SDS011;52872;52.994;6.940;2023-04-15T09:27:48;5.25;;;2.50;;
66087;SDS011;52872;52.994;6.940;2023-04-15T09:30:15;4.18;;;3.00;;
66087;SDS011;52872;52.994;6.940;2023-04-15T09:32:49;5.32;;;2.60;;
66087;SDS011;52872;52.994;6.940;2023-04-15T09:35:19;4.90;;;3.08;;
66087;SDS011;52872;52.994;6.940;2023-04-15T09:37:48;5.95;;;3.45;;
66087;SDS011;52872;52.994;6.940;2023-04-15T09:43:03;5.43;;;2.75;;
66087;SDS011;52872;52.994;6.940;2023-04-15T09:45:32;2.83;;;2.13;;
66087;SDS011;52872;52.994;6.940;2023-04-15T09:48:14;6.45;;;3.00;;
66087;SDS011;52872;52.994;6.940;2023-04-15T09:50:42;2.85;;;2.50;;
66087;SDS011;52872;52.994;6.940;2023-04-15T09:53:10;4.70;;;2.35;;
66087;SDS011;52872;52.994;6.940;2023-04-15T09:55:59;5.53;;;2.90;;
66087;SDS011;52872;52.994;6.940;2023-04-15T09:58:30;4.03;;;2.25;;
66087;SDS011;52872;52.994;6.940;2023-04-15T10:00:59;3.90;;;2.97;;
66087;SDS011;52872;52.994;6.940;2023-04-15T10:03:29;5.07;;;2.38;;
66087;SDS011;52872;52.994;6.940;2023-04-15T10:05:59;4.45;;;2.35;;
66087;SDS011;52872;52.994;6.940;2023-04-15T10:08:28;4.53;;;2.45;;
66087;SDS011;52872;52.994;6.940;2023-04-15T10:10:56;2.83;;;2.20;;
66087;SDS011;52872;52.994;6.940;2023-04-15T10:13:24;4.55;;;2.45;;
66087;SDS011;52872;52.994;6.940;2023-04-15T10:16:01;4.72;;;2.97;;
66087;SDS011;52872;52.994;6.940;2023-04-15T10:21:06;6.60;;;2.90;;
66087;SDS011;52872;52.994;6.940;2023-04-15T10:23:35;3.88;;;2.70;;
66087;SDS011;52872;52.994;6.940;2023-04-15T10:26:03;4.55;;;2.75;;
66087;SDS011;52872;52.994;6.940;2023-04-15T10:28:30;2.97;;;1.80;;
66087;SDS011;52872;52.994;6.940;2023-04-15T10:30:57;3.95;;;2.35;;
66087;SDS011;52872;52.994;6.940;2023-04-15T10:33:25;2.72;;;2.50;;
66087;SDS011;52872;52.994;6.940;2023-04-15T10:35:53;3.25;;;1.77;;
66087;SDS011;52872;52.994;6.940;2023-04-15T10:38:34;3.30;;;2.55;;
66087;SDS011;52872;52.994;6.940;2023-04-15T10:46:41;3.85;;;2.63;;
66087;SDS011;52872;52.994;6.940;2023-04-15T10:49:12;4.22;;;2.17;;
66087;SDS011;52872;52.994;6.940;2023-04-15T10:51:41;3.60;;;1.88;;
66087;SDS011;52872;52.994;6.940;2023-04-15T10:54:15;4.32;;;2.35;;
66087;SDS011;52872;52.994;6.940;2023-04-15T10:57:06;3.92;;;2.78;;
66087;SDS011;52872;52.994;6.940;2023-04-15T10:59:36;4.32;;;2.55;;
66087;SDS011;52872;52.994;6.940;2023-04-15T11:02:05;5.80;;;2.30;;
66087;SDS011;52872;52.994;6.940;2023-04-15T11:07:32;3.75;;;1.98;;
66087;SDS011;52872;52.994;6.940;2023-04-15T11:12:39;3.70;;;2.20;;
66087;SDS011;52872;52.994;6.940;2023-04-15T11:17:52;3.75;;;2.30;;
66087;SDS011;52872;52.994;6.940;2023-04-15T11:20:20;2.30;;;2.10;;
66087;SDS011;52872;52.994;6.940;2023-04-15T11:22:48;4.40;;;2.17;;
66087;SDS011;52872;52.994;6.940;2023-04-15T11:25:26;4.70;;;2.30;;
66087;SDS011;52872;52.994;6.940;2023-04-15T11:27:54;4.68;;;2.50;;
66087;SDS011;52872;52.994;6.940;2023-04-15T11:30:25;2.92;;;1.90;;
66087;SDS011;52872;52.994;6.940;2023-04-15T11:32:54;4.57;;;2.65;;
66087;SDS011;52872;52.994;6.940;2023-04-15T11:35:23;4.90;;;2.90;;
66087;SDS011;52872;52.994;6.940;2023-04-15T11:37:51;3.35;;;2.13;;
66087;SDS011;52872;52.994;6.940;2023-04-15T11:40:22;3.78;;;2.25;;
66087;SDS011;52872;52.994;6.940;2023-04-15T11:45:35;3.42;;;2.08;;
66087;SDS011;52872;52.994;6.940;2023-04-15T11:48:12;2.22;;;2.00;;
66087;SDS011;52872;52.994;6.940;2023-04-15T11:50:39;2.70;;;2.10;;
66087;SDS011;52872;52.994;6.940;2023-04-15T11:53:07;5.78;;;2.83;;
66087;SDS011;52872;52.994;6.940;2023-04-15T11:55:45;3.78;;;2.50;;
66087;SDS011;52872;52.994;6.940;2023-04-15T12:00:55;5.35;;;2.72;;
66087;SDS011;52872;52.994;6.940;2023-04-15T12:03:25;6.10;;;3.03;;
66087;SDS011;52872;52.994;6.940;2023-04-15T12:17:00;2.13;;;1.63;;
66087;SDS011;52872;52.994;6.940;2023-04-15T12:19:35;6.63;;;2.85;;
66087;SDS011;52872;52.994;6.940;2023-04-15T12:22:08;3.45;;;2.00;;
66087;SDS011;52872;52.994;6.940;2023-04-15T12:24:37;3.88;;;1.70;;
66087;SDS011;52872;52.994;6.940;2023-04-15T12:27:05;2.75;;;1.73;;
66087;SDS011;52872;52.994;6.940;2023-04-15T12:29:37;3.95;;;2.42;;
66087;SDS011;52872;52.994;6.940;2023-04-15T12:34:39;4.63;;;1.73;;
66087;SDS011;52872;52.994;6.940;2023-04-15T12:37:07;5.53;;;2.28;;
66087;SDS011;52872;52.994;6.940;2023-04-15T12:39:35;5.35;;;2.42;;
66087;SDS011;52872;52.994;6.940;2023-04-15T12:42:04;6.55;;;1.85;;
66087;SDS011;52872;52.994;6.940;2023-04-15T12:44:31;4.78;;;1.95;;
66087;SDS011;52872;52.994;6.940;2023-04-15T12:46:59;3.30;;;1.60;;
66087;SDS011;52872;52.994;6.940;2023-04-15T12:49:26;5.63;;;2.30;;
66087;SDS011;52872;52.994;6.940;2023-04-15T12:51:55;4.10;;;1.90;;
66087;SDS011;52872;52.994;6.940;2023-04-15T12:54:24;3.60;;;1.90;;
66087;SDS011;52872;52.994;6.940;2023-04-15T12:56:52;4.63;;;1.75;;
66087;SDS011;52872;52.994;6.940;2023-04-15T12:59:20;3.15;;;1.70;;
66087;SDS011;52872;52.994;6.940;2023-04-15T13:01:49;4.15;;;1.83;;
66087;SDS011;52872;52.994;6.940;2023-04-15T13:04:17;5.38;;;2.00;;
66087;SDS011;52872;52.994;6.940;2023-04-15T13:06:45;5.65;;;2.17;;
66087;SDS011;52872;52.994;6.940;2023-04-15T13:09:12;4.10;;;1.55;;
66087;SDS011;52872;52.994;6.940;2023-04-15T13:11:40;5.05;;;1.80;;
66087;SDS011;52872;52.994;6.940;2023-04-15T13:14:07;3.78;;;1.60;;
66087;SDS011;52872;52.994;6.940;2023-04-15T13:16:36;2.10;;;1.88;;
66087;SDS011;52872;52.994;6.940;2023-04-15T13:19:04;5.32;;;1.98;;
66087;SDS011;52872;52.994;6.940;2023-04-15T13:21:31;3.72;;;1.77;;
66087;SDS011;52872;52.994;6.940;2023-04-15T13:24:01;6.43;;;2.05;;
66087;SDS011;52872;52.994;6.940;2023-04-15T13:26:28;3.40;;;2.10;;
66087;SDS011;52872;52.994;6.940;2023-04-15T13:28:56;6.00;;;2.15;;
66087;SDS011;52872;52.994;6.940;2023-04-15T13:31:23;6.68;;;2.20;;
66087;SDS011;52872;52.994;6.940;2023-04-15T13:33:50;5.00;;;2.08;;
66087;SDS011;52872;52.994;6.940;2023-04-15T13:36:17;5.07;;;2.55;;
66087;SDS011;52872;52.994;6.940;2023-04-15T13:38:44;6.72;;;2.20;;
66087;SDS011;52872;52.994;6.940;2023-04-15T13:41:13;6.05;;;2.08;;
66087;SDS011;52872;52.994;6.940;2023-04-15T13:43:40;7.85;;;2.78;;
66087;SDS011;52872;52.994;6.940;2023-04-15T13:46:07;6.22;;;2.42;;
66087;SDS011;52872;52.994;6.940;2023-04-15T13:48:34;4.43;;;2.58;;
66087;SDS011;52872;52.994;6.940;2023-04-15T13:51:01;5.82;;;2.28;;
66087;SDS011;52872;52.994;6.940;2023-04-15T13:53:28;11.32;;;3.15;;
66087;SDS011;52872;52.994;6.940;2023-04-15T13:55:59;5.45;;;2.67;;
66087;SDS011;52872;52.994;6.940;2023-04-15T13:58:26;6.97;;;2.45;;
66087;SDS011;52872;52.994;6.940;2023-04-15T14:00:53;8.90;;;2.33;;
66087;SDS011;52872;52.994;6.940;2023-04-15T14:03:21;8.30;;;2.95;;
66087;SDS011;52872;52.994;6.940;2023-04-15T14:05:48;5.85;;;2.42;;
66087;SDS011;52872;52.994;6.940;2023-04-15T14:08:21;8.77;;;2.80;;
66087;SDS011;52872;52.994;6.940;2023-04-15T14:10:48;7.65;;;2.88;;
66087;SDS011;52872;52.994;6.940;2023-04-15T14:13:15;6.55;;;3.00;;
66087;SDS011;52872;52.994;6.940;2023-04-15T14:15:44;8.23;;;3.58;;
66087;SDS011;52872;52.994;6.940;2023-04-15T14:18:12;13.20;;;3.75;;
66087;SDS011;52872;52.994;6.940;2023-04-15T14:20:39;3.95;;;3.08;;
66087;SDS011;52872;52.994;6.940;2023-04-15T14:23:06;7.38;;;3.90;;
66087;SDS011;52872;52.994;6.940;2023-04-15T14:25:32;6.65;;;3.88;;
66087;SDS011;52872;52.994;6.940;2023-04-15T14:28:00;9.48;;;4.43;;
66087;SDS011;52872;52.994;6.940;2023-04-15T14:30:27;10.82;;;4.88;;
66087;SDS011;52872;52.994;6.940;2023-04-15T14:32:54;7.68;;;4.43;;
66087;SDS011;52872;52.994;6.940;2023-04-15T14:35:21;8.80;;;4.15;;
66087;SDS011;52872;52.994;6.940;2023-04-15T14:37:54;5.13;;;3.20;;
66087;SDS011;52872;52.994;6.940;2023-04-15T14:40:21;8.80;;;4.28;;
66087;SDS011;52872;52.994;6.940;2023-04-15T14:42:48;4.78;;;3.03;;
66087;SDS011;52872;52.994;6.940;2023-04-15T14:45:15;11.10;;;4.20;;
66087;SDS011;52872;52.994;6.940;2023-04-15T14:47:43;8.13;;;4.80;;
66087;SDS011;52872;52.994;6.940;2023-04-15T14:50:10;9.55;;;4.10;;
66087;SDS011;52872;52.994;6.940;2023-04-15T14:52:37;11.60;;;5.25;;
66087;SDS011;52872;52.994;6.940;2023-04-15T14:55:07;5.47;;;3.35;;
66087;SDS011;52872;52.994;6.940;2023-04-15T14:57:36;10.77;;;4.32;;
66087;SDS011;52872;52.994;6.940;2023-04-15T15:00:07;10.50;;;5.07;;
66087;SDS011;52872;52.994;6.940;2023-04-15T15:02:36;10.07;;;5.28;;
66087;SDS011;52872;52.994;6.940;2023-04-15T15:05:06;7.30;;;3.58;;
66087;SDS011;52872;52.994;6.940;2023-04-15T15:07:35;4.68;;;3.78;;
66087;SDS011;52872;52.994;6.940;2023-04-15T15:10:03;7.60;;;4.10;;
66087;SDS011;52872;52.994;6.940;2023-04-15T15:12:31;11.32;;;5.75;;
66087;SDS011;52872;52.994;6.940;2023-04-15T15:14:58;10.10;;;5.80;;
66087;SDS011;52872;52.994;6.940;2023-04-15T15:17:26;9.82;;;6.90;;
66087;SDS011;52872;52.994;6.940;2023-04-15T15:19:53;12.38;;;5.65;;
66087;SDS011;52872;52.994;6.940;2023-04-15T15:22:20;8.75;;;4.97;;
66087;SDS011;52872;52.994;6.940;2023-04-15T15:24:47;12.23;;;5.72;;